Aviation Digital Data Service (ADDS)

Output produced by METARs form (2344 UTC 25 June 2019)
found at http://aviationweather.gov/metar/data/
 
METAR text: KLZZ 252335Z AUTO 17009KT 10SM CLR 31/20 A2995 RMK AO2 T03070198
Conditions at: KLZZ (LAMPASAS , TX, US) observed 2335 UTC 25 June 2019
Temperature: 30.7°C (87°F)
Dewpoint: 19.8°C (68°F) [RH = 52%]
Pressure (altimeter): 29.95 inches Hg (1014.3 mb)
Winds: from the S (170 degrees) at 10 MPH (9 knots; 4.6 m/s)
Visibility: 10 or more miles (16+ km)
Ceiling: at least 12,000 feet AGL
Clouds: sky clear below 12,000 feet AGL
Weather: automated observation with no human augmentation;
there may or may not be significant weather present at this time

METAR text: KLZZ 252315Z AUTO 16007G15KT 10SM CLR 31/20 A2995 RMK AO2 T03090198
Conditions at: KLZZ (LAMPASAS , TX, US) observed 2315 UTC 25 June 2019
Temperature: 30.9°C (88°F)
Dewpoint: 19.8°C (68°F) [RH = 52%]
Pressure (altimeter): 29.95 inches Hg (1014.3 mb)
Winds: from the SSE (160 degrees) at 8 MPH (7 knots; 3.6 m/s)
gusting to 17 MPH (15 knots; 7.7 m/s)
Visibility: 10 or more miles (16+ km)
Ceiling: at least 12,000 feet AGL
Clouds: sky clear below 12,000 feet AGL
Weather: automated observation with no human augmentation;
there may or may not be significant weather present at this time

METAR text: KLZZ 252155Z AUTO 15010KT 120V190 10SM CLR 31/21 A2996 RMK AO2 T03130207
Conditions at: KLZZ (LAMPASAS , TX, US) observed 2155 UTC 25 June 2019
Temperature: 31.3°C (88°F)
Dewpoint: 20.7°C (69°F) [RH = 53%]
Pressure (altimeter): 29.96 inches Hg (1014.6 mb)
Winds: from the SSE (150 degrees) at 12 MPH (10 knots; 5.1 m/s)
Visibility: 10 or more miles (16+ km)
Ceiling: at least 12,000 feet AGL
Clouds: sky clear below 12,000 feet AGL
Weather: automated observation with no human augmentation;
there may or may not be significant weather present at this time